Time;durP1;ratioP1;P1;durP2;ratioP2;P2;SDS_P1;SDS_P2;PMS_P1;PMS_P2;Temp;Humidity;BMP_temperature;BMP_pressure;BME280_temperature;BME280_humidity;BME280_pressure;Samples;Min_cycle;Max_cycle;Signal;HPM_P1;HPM_P2
2021/08/31 00:01:46;;;;;;;0.15;0.15;;;;;;;7.24;56.76;98601.50;6218654;23;20016;-63
2021/08/31 00:04:12;;;;;;;0.73;0.57;;;;;;;7.24;56.91;98601.50;6245226;23;20544;-63
2021/08/31 00:06:37;;;;;;;0.40;0.40;;;;;;;7.22;56.89;98600.91;6245247;23;20012;-62
2021/08/31 00:09:03;;;;;;;0.40;0.40;;;;;;;7.21;56.99;98590.22;6245312;23;20018;-63
2021/08/31 00:11:29;;;;;;;0.40;0.40;;;;;;;7.20;57.05;98597.56;6245243;23;20073;-63
2021/08/31 00:13:55;;;;;;;0.30;0.30;;;;;;;7.21;57.04;98603.84;6244932;23;20070;-64
2021/08/31 00:16:20;;;;;;;0.20;0.20;;;;;;;7.22;57.04;98605.53;6245113;23;20054;-64
2021/08/31 00:18:46;;;;;;;0.40;0.40;;;;;;;7.18;57.18;98600.53;6244981;23;20012;-64
2021/08/31 00:21:12;;;;;;;0.60;0.60;;;;;;;7.17;57.34;98601.56;6245424;23;20050;-63
2021/08/31 00:23:38;;;;;;;0.20;0.20;;;;;;;7.13;57.29;98600.31;6218241;23;20008;-64
2021/08/31 00:26:04;;;;;;;0.20;0.20;;;;;;;7.11;57.43;98607.03;6244932;23;20046;-65
2021/08/31 00:28:30;;;;;;;1.35;0.75;;;;;;;7.08;57.45;98607.47;6244083;23;20047;-64
2021/08/31 00:30:56;;;;;;;2.28;0.88;;;;;;;7.06;57.62;98613.16;6244843;23;20019;-64
2021/08/31 00:33:21;;;;;;;0.35;0.35;;;;;;;7.04;57.66;98622.63;6218148;23;20000;-63
2021/08/31 00:35:47;;;;;;;0.85;0.55;;;;;;;6.97;57.81;98612.56;6244984;23;20510;-63
2021/08/31 00:38:13;;;;;;;0.20;0.20;;;;;;;6.89;57.93;98612.84;6244751;23;20012;-63
2021/08/31 00:40:39;;;;;;;1.35;1.25;;;;;;;6.84;58.15;98613.44;6245122;23;20012;-63
2021/08/31 00:43:06;;;;;;;1.40;0.55;;;;;;;6.81;58.18;98632.16;6244900;23;20015;-64
2021/08/31 00:45:33;;;;;;;2.63;0.60;;;;;;;6.76;58.35;98631.97;6244773;23;20011;-64
2021/08/31 00:47:59;;;;;;;1.55;0.68;;;;;;;6.69;58.43;98628.44;6244709;23;20425;-63
2021/08/31 00:50:25;;;;;;;0.28;0.28;;;;;;;6.60;58.73;98628.66;6244882;23;20042;-63
2021/08/31 00:52:52;;;;;;;0.90;0.88;;;;;;;6.55;58.84;98633.94;6245061;23;20028;-63
2021/08/31 00:55:18;;;;;;;1.30;0.80;;;;;;;6.48;58.95;98631.19;6244810;23;20009;-62
2021/08/31 00:57:44;;;;;;;0.50;0.50;;;;;;;6.38;59.18;98629.97;6244749;23;20012;-63
2021/08/31 01:00:12;;;;;;;0.30;0.30;;;;;;;6.30;59.40;98631.00;6244153;23;20015;-62
2021/08/31 01:02:38;;;;;;;0.50;0.50;;;;;;;6.24;59.36;98627.25;6244433;23;20091;-64
2021/08/31 01:05:05;;;;;;;4.03;2.20;;;;;;;6.20;59.57;98622.41;6244710;23;20019;-62
2021/08/31 01:07:32;;;;;;;0.38;0.38;;;;;;;6.13;59.55;98622.44;6244884;23;20078;-63
2021/08/31 01:10:00;;;;;;;0.75;0.47;;;;;;;6.12;59.44;98626.19;6244994;23;20431;-63
2021/08/31 01:12:27;;;;;;;4.85;1.58;;;;;;;6.11;59.66;98624.50;6244813;23;20008;-63
2021/08/31 01:14:53;;;;;;;0.50;0.50;;;;;;;6.11;59.59;98629.97;6244856;23;20441;-65
2021/08/31 01:17:24;;;;;;;0.68;0.68;;;;;;;6.14;59.43;98629.56;6244231;23;20012;-62
2021/08/31 01:19:49;;;;;;;0.77;0.77;;;;;;;6.15;59.36;98639.41;6244688;23;20078;-63
2021/08/31 01:22:15;;;;;;;1.15;1.13;;;;;;;6.18;59.29;98630.81;6244757;23;20103;-63
2021/08/31 01:24:42;;;;;;;1.98;1.80;;;;;;;6.23;59.12;98622.84;6244780;23;20008;-62
2021/08/31 01:27:09;;;;;;;1.35;1.25;;;;;;;6.32;58.97;98626.19;6244679;23;20445;-63
2021/08/31 01:29:35;;;;;;;0.77;0.77;;;;;;;6.38;58.92;98628.06;6243978;23;20522;-64
2021/08/31 01:32:02;;;;;;;2.38;1.85;;;;;;;6.42;58.73;98632.06;6244566;23;20011;-63
2021/08/31 01:34:29;;;;;;;2.60;1.23;;;;;;;6.47;58.72;98623.22;6244488;23;20105;-62
2021/08/31 01:36:55;;;;;;;1.30;0.38;;;;;;;6.52;58.74;98630.78;6244481;23;20012;-61
2021/08/31 01:39:21;;;;;;;0.45;0.45;;;;;;;6.56;58.59;98632.84;6244651;23;20016;-62
2021/08/31 01:41:47;;;;;;;0.82;0.82;;;;;;;6.61;58.46;98637.66;6244816;23;20012;-63
2021/08/31 01:44:13;;;;;;;1.40;1.30;;;;;;;6.68;58.46;98638.50;6244511;23;20008;-62
2021/08/31 01:46:39;;;;;;;0.82;0.82;;;;;;;6.74;58.34;98634.06;6244523;23;20352;-64
2021/08/31 01:49:04;;;;;;;0.50;0.50;;;;;;;6.80;58.23;98635.94;6244662;23;20011;-63
2021/08/31 01:51:30;;;;;;;1.40;0.50;;;;;;;6.87;58.11;98639.47;6244514;23;20015;-63
2021/08/31 01:53:56;;;;;;;1.90;1.80;;;;;;;6.96;57.88;98638.22;6244548;23;20015;-62
2021/08/31 01:56:22;;;;;;;0.75;0.75;;;;;;;7.07;57.89;98638.59;6244743;23;20012;-62
2021/08/31 01:58:48;;;;;;;3.70;1.02;;;;;;;7.23;57.60;98642.69;6243888;23;20008;-62
2021/08/31 02:01:14;;;;;;;0.20;0.20;;;;;;;7.47;57.14;98646.59;6245662;23;20036;-62
2021/08/31 02:03:39;;;;;;;0.73;0.70;;;;;;;8.03;56.03;98651.22;6246411;23;20018;-63
2021/08/31 02:06:05;;;;;;;1.02;0.93;;;;;;;9.54;53.09;98650.09;6246461;23;20437;-62
2021/08/31 02:08:31;;;;;;;0.65;0.65;;;;;;;11.72;48.62;98650.16;6246696;23;20012;-62
2021/08/31 02:10:57;;;;;;;1.10;0.88;;;;;;;13.15;46.36;98647.22;6246987;23;20016;-61
2021/08/31 02:13:22;;;;;;;4.75;1.80;;;;;;;14.01;45.17;98649.28;6246414;23;20008;-60
2021/08/31 02:15:48;;;;;;;0.25;0.25;;;;;;;15.49;43.37;98647.81;6245953;23;20015;-61
2021/08/31 02:18:14;;;;;;;0.30;0.30;;;;;;;17.70;40.29;98641.31;6246292;23;20020;-62
2021/08/31 02:20:40;;;;;;;0.43;0.43;;;;;;;19.76;37.85;98653.34;6246816;23;20491;-62
2021/08/31 02:23:06;;;;;;;5.47;1.33;;;;;;;21.35;36.50;98642.34;6246993;23;20004;-62
2021/08/31 02:25:31;;;;;;;0.20;0.20;;;;;;;22.42;35.88;98639.47;6246223;23;20066;-61
2021/08/31 02:27:57;;;;;;;0.43;0.43;;;;;;;23.38;35.22;98642.81;6246431;23;20016;-63
2021/08/31 02:30:23;;;;;;;0.30;0.30;;;;;;;23.75;35.37;98644.25;6245263;23;20474;-62
2021/08/31 02:32:50;;;;;;;0.60;0.60;;;;;;;22.96;37.07;98645.09;6246418;23;20016;-62
2021/08/31 02:35:16;;;;;;;1.13;0.65;;;;;;;23.38;37.19;98645.63;6246561;23;20099;-63
2021/08/31 02:37:43;;;;;;;0.35;0.35;;;;;;;23.91;36.70;98660.63;6245740;23;20059;-62
2021/08/31 02:40:10;;;;;;;0.25;0.25;;;;;;;24.62;35.92;98651.94;6246010;23;20008;-61
2021/08/31 02:42:36;;;;;;;0.40;0.40;;;;;;;25.28;35.49;98656.41;6246499;23;20012;-61
2021/08/31 02:45:02;;;;;;;0.45;0.45;;;;;;;25.83;34.74;98665.06;6245916;23;20053;-62
2021/08/31 02:47:29;;;;;;;0.77;0.30;;;;;;;26.13;34.46;98651.81;6246759;23;20019;-61
2021/08/31 02:49:55;;;;;;;0.17;0.17;;;;;;;27.56;32.66;98660.19;6246188;23;20008;-62
2021/08/31 02:52:21;;;;;;;0.47;0.47;;;;;;;28.36;32.20;98669.16;6246293;23;20012;-62
2021/08/31 02:54:47;;;;;;;0.28;0.28;;;;;;;29.28;31.47;98673.00;6246085;23;20503;-62
2021/08/31 02:57:12;;;;;;;0.10;0.10;;;;;;;29.54;31.57;98666.00;6245880;23;20012;-62
2021/08/31 02:59:38;;;;;;;0.10;0.10;;;;;;;29.97;31.15;98663.44;6245672;23;20012;-62
2021/08/31 03:02:04;;;;;;;0.13;0.13;;;;;;;30.48;30.84;98668.25;6246375;23;20086;-61
2021/08/31 03:04:32;;;;;;;0.10;0.10;;;;;;;30.53;30.91;98660.25;6246044;23;20085;-62
2021/08/31 03:06:58;;;;;;;0.63;0.17;;;;;;;30.90;30.67;98670.28;6246319;23;20154;-63
2021/08/31 03:09:24;;;;;;;0.20;0.20;;;;;;;30.95;30.83;98669.16;6246201;23;20031;-62
2021/08/31 03:11:49;;;;;;;0.10;0.10;;;;;;;30.63;31.23;98667.34;6245673;23;20019;-62
2021/08/31 03:14:19;;;;;;;1.05;0.95;;;;;;;30.15;31.93;98661.84;6245833;23;20008;-62
2021/08/31 03:16:46;;;;;;;8.27;0.22;;;;;;;29.84;32.42;98657.06;6245688;23;20502;-62
2021/08/31 03:19:14;;;;;;;0.13;0.13;;;;;;;30.02;31.96;98648.97;6245438;23;20019;-61
2021/08/31 03:21:40;;;;;;;1.15;0.25;;;;;;;30.45;31.31;98663.28;6245829;23;20035;-62
2021/08/31 03:24:05;;;;;;;0.20;0.20;;;;;;;30.24;31.55;98655.94;6246021;23;20012;-62
2021/08/31 03:26:31;;;;;;;1.83;0.20;;;;;;;30.18;31.59;98658.25;6245566;23;20008;-62
2021/08/31 03:28:57;;;;;;;0.20;0.20;;;;;;;29.92;31.86;98655.19;6244871;23;20089;-61
2021/08/31 03:31:23;;;;;;;1.02;0.70;;;;;;;29.81;31.91;98655.75;6245601;23;20008;-62
2021/08/31 03:33:49;;;;;;;0.10;0.10;;;;;;;29.97;31.57;98650.09;6245717;23;20008;-62
2021/08/31 03:36:15;;;;;;;0.50;0.50;;;;;;;30.22;31.43;98655.50;6245230;23;20322;-63
2021/08/31 03:38:41;;;;;;;0.88;0.55;;;;;;;30.07;31.18;98656.38;6245346;23;20019;-63
2021/08/31 03:41:06;;;;;;;0.10;0.10;;;;;;;30.02;31.31;98663.13;6245730;23;20011;-63
2021/08/31 03:43:32;;;;;;;1.17;0.68;;;;;;;30.07;31.48;98662.03;6245415;23;20036;-62
2021/08/31 03:45:58;;;;;;;1.65;0.20;;;;;;;30.45;30.95;98661.28;6245746;23;20036;-62
2021/08/31 03:48:24;;;;;;;1.30;0.45;;;;;;;30.79;30.42;98649.44;6245662;23;20077;-63
2021/08/31 03:50:49;;;;;;;0.13;0.13;;;;;;;30.81;30.44;98652.72;6245603;23;20012;-63
2021/08/31 03:53:15;;;;;;;0.40;0.40;;;;;;;30.48;30.82;98646.38;6245520;23;20344;-66
2021/08/31 03:55:41;;;;;;;0.10;0.10;;;;;;;30.08;31.33;98643.84;6245319;23;20080;-65
2021/08/31 03:58:07;;;;;;;1.85;0.38;;;;;;;29.84;31.55;98648.56;6245569;23;20115;-67
2021/08/31 04:00:35;;;;;;;0.75;0.73;;;;;;;29.52;31.70;98640.91;6244986;23;20016;-67
2021/08/31 04:03:02;;;;;;;0.13;0.13;;;;;;;29.52;31.67;98640.09;6245656;23;20352;-64
2021/08/31 04:05:29;;;;;;;0.60;0.60;;;;;;;29.27;31.73;98637.47;6245282;23;20015;-63
2021/08/31 04:07:55;;;;;;;1.80;0.30;;;;;;;29.28;31.62;98641.91;6241622;23;20012;-69
2021/08/31 04:10:21;;;;;;;0.20;0.20;;;;;;;29.94;30.84;98644.34;6244930;23;20008;-61
2021/08/31 04:12:47;;;;;;;0.85;0.63;;;;;;;30.53;29.89;98642.44;6245042;23;20027;-62
2021/08/31 04:15:13;;;;;;;0.32;0.30;;;;;;;30.72;29.77;98639.56;6244029;23;20062;-62
2021/08/31 04:17:39;;;;;;;1.45;0.25;;;;;;;30.52;29.87;98627.44;6245217;23;20090;-62
2021/08/31 04:20:06;;;;;;;0.13;0.13;;;;;;;30.29;30.18;98627.34;6244883;23;20370;-63
2021/08/31 04:22:31;;;;;;;0.10;0.10;;;;;;;30.69;29.55;98629.00;6245318;23;20472;-63
2021/08/31 04:24:57;;;;;;;0.45;0.43;;;;;;;29.95;30.47;98629.84;6244848;23;20008;-63
2021/08/31 04:27:23;;;;;;;1.55;0.32;;;;;;;27.48;33.18;98647.84;6245093;23;20019;-62
2021/08/31 04:29:49;;;;;;;0.20;0.20;;;;;;;24.46;37.23;98634.75;6244035;23;20456;-61
2021/08/31 04:32:14;;;;;;;0.68;0.68;;;;;;;21.57;41.54;98632.44;6218152;23;20054;-62
2021/08/31 04:34:40;;;;;;;0.98;0.63;;;;;;;19.28;44.97;98636.69;6244913;23;20014;-62
2021/08/31 04:37:06;;;;;;;0.20;0.20;;;;;;;17.70;46.82;98646.88;6245009;23;20022;-63
2021/08/31 04:39:32;;;;;;;0.10;0.10;;;;;;;16.58;47.96;98646.06;6244795;23;20019;-62
2021/08/31 04:42:02;;;;;;;0.70;0.22;;;;;;;15.75;48.21;98648.75;6245274;23;20536;-62
2021/08/31 04:44:30;;;;;;;0.20;0.20;;;;;;;15.05;48.30;98643.47;6244839;23;20028;-62
2021/08/31 04:46:56;;;;;;;0.55;0.32;;;;;;;14.63;48.31;98649.84;6244329;23;20019;-62
2021/08/31 04:49:21;;;;;;;0.20;0.20;;;;;;;14.24;47.95;98652.00;6244876;23;20016;-62
2021/08/31 04:51:47;;;;;;;1.70;0.55;;;;;;;13.96;47.43;98654.78;6245032;23;20020;-62
2021/08/31 04:54:13;;;;;;;0.15;0.15;;;;;;;13.82;47.15;98648.84;6245050;23;20103;-60
2021/08/31 04:56:39;;;;;;;0.30;0.30;;;;;;;13.66;46.68;98645.09;6244928;23;20035;-61
2021/08/31 04:59:05;;;;;;;0.28;0.28;;;;;;;13.67;46.13;98645.91;6244429;23;20015;-61
2021/08/31 05:01:37;;;;;;;0.20;0.20;;;;;;;13.68;45.68;98644.84;6245265;23;20095;-63
2021/08/31 05:04:03;;;;;;;0.65;0.65;;;;;;;13.65;44.78;98646.19;6245124;23;20016;-61
2021/08/31 05:06:29;;;;;;;1.55;0.65;;;;;;;13.63;44.59;98651.13;6244643;23;20019;-61
2021/08/31 05:08:55;;;;;;;0.20;0.20;;;;;;;13.87;44.14;98647.22;6244964;23;20008;-61
2021/08/31 05:11:21;;;;;;;0.40;0.40;;;;;;;14.11;43.29;98665.13;6244675;23;20046;-61
2021/08/31 05:13:47;;;;;;;0.10;0.10;;;;;;;14.35;42.30;98650.97;6244894;23;20095;-62
2021/08/31 05:16:16;;;;;;;1.00;0.50;;;;;;;14.46;42.00;98652.72;6244640;23;20008;-60
2021/08/31 05:18:42;;;;;;;0.38;0.38;;;;;;;14.43;42.09;98657.94;6218191;23;20101;-60
2021/08/31 05:21:08;;;;;;;0.20;0.20;;;;;;;14.42;41.78;98662.63;6244941;23;20066;-61
2021/08/31 06:51:02;;;;;;;0.10;0.10;;;;;;;14.82;40.77;98660.47;6243089;23;20063;-63
2021/08/31 06:53:28;;;;;;;0.10;0.10;;;;;;;14.74;40.83;98663.72;6244736;23;20357;-62
2021/08/31 06:55:53;;;;;;;0.13;0.13;;;;;;;14.79;40.67;98652.72;6240993;23;20185;-61
2021/08/31 06:58:19;;;;;;;0.20;0.20;;;;;;;14.83;41.11;98640.03;6243597;23;20107;-61
2021/08/31 07:00:45;;;;;;;0.28;0.28;;;;;;;14.81;41.11;98644.97;6244692;23;20023;-60
2021/08/31 07:03:11;;;;;;;0.25;0.25;;;;;;;14.80;41.10;98637.81;6244287;23;20020;-62
2021/08/31 07:05:36;;;;;;;0.20;0.20;;;;;;;14.53;41.18;98642.28;6243736;23;20008;-59
2021/08/31 07:08:02;;;;;;;4.10;0.15;;;;;;;14.30;41.55;98643.50;6242615;23;20012;-62
2021/08/31 07:10:28;;;;;;;0.20;0.20;;;;;;;14.16;42.01;98637.59;6240779;23;20035;-63
2021/08/31 07:12:55;;;;;;;0.10;0.10;;;;;;;14.19;41.93;98627.91;6240943;23;20008;-62
2021/08/31 07:16:01;;;;;;;0.43;0.30;;;;;;;14.32;41.50;98624.72;6243337;23;20352;-64
2021/08/31 07:18:46;;;;;;;;;;;;;;;14.35;41.51;98621.44;6244870;23;20522;-62
2021/08/31 07:21:31;;;;;;;;;;;;;;;14.37;41.25;98621.19;6245271;23;19949;-63
2021/08/31 07:23:57;;;;;;;0.10;0.10;;;;;;;14.51;41.19;98622.38;6244381;23;19930;-64
2021/08/31 07:26:23;;;;;;;0.10;0.10;;;;;;;14.60;40.77;98625.47;6244421;23;20433;-63
2021/08/31 07:28:48;;;;;;;0.10;0.10;;;;;;;14.52;41.01;98628.75;6244018;23;20015;-61
2021/08/31 07:31:16;;;;;;;0.10;0.10;;;;;;;14.50;41.32;98615.19;6242793;23;20014;-63
2021/08/31 07:33:43;;;;;;;0.25;0.20;;;;;;;14.71;40.93;98627.25;6244496;23;20008;-64
2021/08/31 07:36:09;;;;;;;0.20;0.20;;;;;;;14.95;40.59;98629.59;6244367;23;20016;-62
2021/08/31 07:38:35;;;;;;;0.30;0.30;;;;;;;15.16;39.98;98632.47;6243752;23;20633;-62
2021/08/31 07:41:00;;;;;;;0.10;0.10;;;;;;;15.19;40.01;98629.16;6244883;23;20094;-66
2021/08/31 07:43:26;;;;;;;0.20;0.20;;;;;;;15.38;40.04;98622.03;6243116;23;20015;-62
2021/08/31 07:45:52;;;;;;;0.10;0.10;;;;;;;15.56;39.40;98614.34;6245570;23;20008;-68
2021/08/31 07:48:17;;;;;;;0.20;0.20;;;;;;;15.62;39.54;98617.97;6245606;23;20099;-64
2021/08/31 07:50:43;;;;;;;0.20;0.20;;;;;;;15.58;39.95;98621.28;6245403;23;20038;-60
2021/08/31 07:53:09;;;;;;;0.10;0.10;;;;;;;15.48;40.09;98615.72;6245777;23;20455;-62
2021/08/31 07:55:35;;;;;;;0.10;0.10;;;;;;;15.33;40.27;98618.44;6245460;23;20012;-65
2021/08/31 07:58:01;;;;;;;0.10;0.10;;;;;;;15.32;40.47;98611.25;6245287;23;20326;-63
2021/08/31 08:00:27;;;;;;;0.98;0.77;;;;;;;15.14;40.77;98615.31;6244946;23;20015;-61
2021/08/31 08:02:53;;;;;;;0.22;0.22;;;;;;;15.12;40.92;98604.53;6245342;23;20008;-62
2021/08/31 08:05:18;;;;;;;0.20;0.20;;;;;;;15.26;40.70;98617.84;6245380;23;20015;-61
2021/08/31 08:07:44;;;;;;;0.20;0.20;;;;;;;15.34;40.57;98611.78;6218463;23;20016;-63
2021/08/31 08:10:10;;;;;;;0.10;0.10;;;;;;;15.42;40.36;98592.72;6245597;23;20010;-63
2021/08/31 08:12:36;;;;;;;0.30;0.30;;;;;;;15.67;40.05;98599.44;6245474;23;20008;-63
2021/08/31 08:15:03;;;;;;;0.25;0.25;;;;;;;15.94;39.73;98587.31;6245226;23;20085;-63
2021/08/31 08:17:29;;;;;;;0.63;0.30;;;;;;;16.15;39.35;98590.09;6244705;23;20012;-64
2021/08/31 08:19:55;;;;;;;0.10;0.10;;;;;;;16.21;38.99;98588.97;6217345;23;20391;-62
2021/08/31 08:22:21;;;;;;;1.88;0.35;;;;;;;16.28;39.22;98595.09;6243706;23;20094;-63
2021/08/31 08:24:47;;;;;;;0.15;0.15;;;;;;;16.11;39.44;98601.72;6243392;23;20511;-66
2021/08/31 08:27:13;;;;;;;0.10;0.10;;;;;;;15.99;39.95;98601.19;6244101;23;20008;-63
2021/08/31 08:29:38;;;;;;;0.10;0.10;;;;;;;15.93;39.92;98594.81;6243003;23;20015;-62
2021/08/31 08:32:09;;;;;;;0.38;0.38;;;;;;;15.93;39.94;98586.50;6243791;23;20101;-63
2021/08/31 08:34:35;;;;;;;0.20;0.20;;;;;;;16.06;39.55;98585.13;6244048;23;20012;-66
2021/08/31 08:37:02;;;;;;;1.85;0.50;;;;;;;16.33;39.16;98578.47;6243493;23;20012;-69
2021/08/31 08:39:29;;;;;;;0.17;0.17;;;;;;;16.56;38.80;98578.97;6243363;23;20008;-63
2021/08/31 08:41:56;;;;;;;0.30;0.30;;;;;;;16.79;38.60;98583.09;6243033;23;20008;-66
2021/08/31 08:44:21;;;;;;;0.10;0.10;;;;;;;16.92;38.17;98590.03;6243544;23;20015;-68
2021/08/31 08:46:47;;;;;;;0.10;0.10;;;;;;;17.01;38.22;98595.81;6243384;23;19996;-65
2021/08/31 08:49:14;;;;;;;0.40;0.30;;;;;;;17.00;38.31;98586.66;6243874;23;20083;-61
2021/08/31 08:51:41;;;;;;;0.43;0.43;;;;;;;16.96;38.39;98591.09;6243194;23;20015;-62
2021/08/31 08:54:07;;;;;;;0.25;0.25;;;;;;;16.85;38.71;98592.25;6243030;23;20429;-62
2021/08/31 08:56:34;;;;;;;0.10;0.10;;;;;;;16.78;38.70;98592.53;6243077;23;20081;-62
2021/08/31 08:59:00;;;;;;;0.10;0.10;;;;;;;16.88;38.75;98594.47;6242928;23;20012;-61
2021/08/31 09:01:43;;;;;;;0.20;0.20;;;;;;;17.04;38.52;98587.75;6243506;23;20034;-62
2021/08/31 09:04:11;;;;;;;0.25;0.25;;;;;;;17.20;38.16;98577.44;6243438;23;20062;-63
2021/08/31 09:06:37;;;;;;;0.10;0.10;;;;;;;17.38;38.05;98566.81;6243425;23;20012;-61
2021/08/31 09:09:07;;;;;;;0.30;0.30;;;;;;;17.32;38.07;98571.56;6243408;23;20407;-62
2021/08/31 09:11:46;;;;;;;0.13;0.13;;;;;;;17.24;38.05;98572.13;6243521;23;20016;-63
2021/08/31 09:14:23;;;;;;;0.10;0.10;;;;;;;17.20;38.33;98563.56;6243335;23;20043;-61
2021/08/31 09:16:53;;;;;;;0.20;0.20;;;;;;;17.20;38.46;98569.13;6243268;23;20368;-63
2021/08/31 09:19:32;;;;;;;0.13;0.13;;;;;;;16.93;38.63;98573.09;6241217;23;20502;-63
2021/08/31 09:22:19;;;;;;;0.47;0.32;;;;;;;16.56;39.27;98570.66;6243010;23;20019;-63
2021/08/31 09:25:02;;;;;;;2.50;0.20;;;;;;;16.40;39.38;98561.53;6242834;23;20134;-63
2021/08/31 09:27:36;;;;;;;0.30;0.30;;;;;;;16.45;39.42;98569.88;6242048;23;20008;-62
2021/08/31 09:30:21;;;;;;;0.22;0.22;;;;;;;16.40;39.33;98565.16;6241075;23;20322;-63
2021/08/31 09:33:01;;;;;;;0.40;0.40;;;;;;;16.20;39.66;98573.50;6242148;23;20024;-63
2021/08/31 09:35:33;;;;;;;0.22;0.22;;;;;;;16.03;39.78;98579.28;6243197;23;20455;-62
2021/08/31 09:38:01;;;;;;;0.20;0.20;;;;;;;15.90;40.00;98575.13;6243339;23;20023;-63
2021/08/31 09:40:30;;;;;;;0.40;0.40;;;;;;;15.79;39.89;98574.28;6243119;23;20019;-63
2021/08/31 09:43:04;;;;;;;0.17;0.17;;;;;;;15.69;40.23;98569.53;6243073;23;20008;-62
2021/08/31 09:45:37;;;;;;;0.60;0.23;;;;;;;15.74;39.93;98572.31;6217880;23;20350;-63
2021/08/31 09:48:05;;;;;;;0.10;0.10;;;;;;;15.82;39.71;98581.22;6243095;23;20012;-62
2021/08/31 09:50:38;;;;;;;0.30;0.30;;;;;;;15.67;40.00;98577.28;6216386;23;20462;-63
2021/08/31 09:53:10;;;;;;;0.15;0.15;;;;;;;15.56;40.28;98583.91;6243075;23;20011;-63
2021/08/31 09:55:38;;;;;;;0.15;0.15;;;;;;;15.48;39.99;98582.50;6242726;23;20012;-63
2021/08/31 09:58:10;;;;;;;0.17;0.17;;;;;;;15.49;40.21;98584.19;6242981;23;20023;-63
2021/08/31 10:00:37;;;;;;;0.10;0.10;;;;;;;15.58;39.74;98578.94;6240990;23;20012;-62
2021/08/31 10:03:04;;;;;;;0.73;0.38;;;;;;;15.73;39.51;98573.44;6241665;23;20054;-62
2021/08/31 10:05:31;;;;;;;0.28;0.28;;;;;;;15.89;39.37;98570.72;6244465;23;20452;-62
2021/08/31 10:07:58;;;;;;;0.77;0.43;;;;;;;15.97;39.15;98581.22;6244766;23;20011;-63
2021/08/31 10:10:24;;;;;;;0.20;0.20;;;;;;;16.04;39.10;98569.88;6217773;23;20020;-62
2021/08/31 10:12:54;;;;;;;0.10;0.10;;;;;;;16.18;38.79;98567.38;6244054;23;20012;-62
2021/08/31 10:15:22;;;;;;;0.10;0.10;;;;;;;16.39;38.48;98555.19;6244418;23;20012;-61
2021/08/31 10:17:51;;;;;;;0.47;0.30;;;;;;;16.63;38.21;98560.13;6244812;23;20061;-62
2021/08/31 10:20:26;;;;;;;0.17;0.17;;;;;;;16.81;37.76;98567.84;6244737;23;20016;-62
2021/08/31 10:22:52;;;;;;;0.20;0.20;;;;;;;17.00;37.41;98564.47;6245964;23;20012;-63
2021/08/31 10:25:27;;;;;;;0.10;0.10;;;;;;;17.19;37.41;98564.66;6246668;23;20445;-63
2021/08/31 10:27:54;;;;;;;0.40;0.40;;;;;;;17.42;37.14;98570.69;6246957;23;20357;-62
2021/08/31 10:30:20;;;;;;;0.10;0.10;;;;;;;17.49;36.77;98572.03;6245902;23;20100;-62
2021/08/31 10:32:49;;;;;;;0.10;0.10;;;;;;;17.35;37.13;98570.97;6244984;23;20449;-63
2021/08/31 10:35:35;;;;;;;0.10;0.10;;;;;;;16.85;38.10;98564.50;6244576;23;20012;-63
2021/08/31 10:38:04;;;;;;;0.28;0.28;;;;;;;16.43;38.52;98560.97;6244479;23;20147;-64
2021/08/31 10:40:37;;;;;;;0.10;0.10;;;;;;;16.39;38.70;98571.81;6217784;23;20086;-62
2021/08/31 10:43:04;;;;;;;0.20;0.20;;;;;;;16.42;38.67;98562.13;6244386;23;20023;-64
2021/08/31 10:45:35;;;;;;;0.45;0.43;;;;;;;16.40;38.46;98567.94;6244619;23;20476;-63
2021/08/31 10:48:23;;;;;;;0.20;0.20;;;;;;;16.52;38.35;98558.47;6244530;23;20012;-62
2021/08/31 10:51:01;;;;;;;0.10;0.10;;;;;;;16.66;38.09;98564.28;6243925;23;20015;-63
2021/08/31 10:53:44;;;;;;;0.10;0.10;;;;;;;16.77;37.73;98561.19;6244238;23;20075;-63
2021/08/31 10:58:51;;;;;;;0.10;0.10;;;;;;;16.80;37.57;98560.63;6243707;23;20077;-63
2021/08/31 11:01:22;;;;;;;0.10;0.10;;;;;;;16.78;37.57;98556.47;6244369;23;20017;-63
2021/08/31 11:03:50;;;;;;;0.32;0.32;;;;;;;16.72;37.66;98550.09;6244926;23;20492;-62
2021/08/31 11:06:26;;;;;;;0.10;0.10;;;;;;;16.70;37.65;98554.31;6241464;23;20008;-63
2021/08/31 11:09:07;;;;;;;0.10;0.10;;;;;;;16.63;37.71;98560.13;6244036;23;20023;-63
2021/08/31 11:11:32;;;;;;;0.10;0.10;;;;;;;16.52;37.81;98559.31;6244221;23;20372;-63
2021/08/31 11:13:59;;;;;;;0.20;0.20;;;;;;;16.49;37.75;98559.03;6244147;23;20019;-62
2021/08/31 11:16:29;;;;;;;0.10;0.10;;;;;;;16.55;37.89;98569.00;6244724;23;20012;-62
2021/08/31 11:18:55;;;;;;;0.10;0.10;;;;;;;16.56;37.85;98560.44;6243425;23;20043;-63
2021/08/31 11:21:21;;;;;;;0.20;0.20;;;;;;;16.55;37.64;98569.00;6243963;23;20093;-62
2021/08/31 11:23:47;;;;;;;0.10;0.10;;;;;;;16.50;37.82;98571.78;6244564;23;20035;-62
2021/08/31 11:26:25;;;;;;;0.10;0.10;;;;;;;16.46;38.02;98561.28;6244478;23;20069;-63
2021/08/31 11:28:52;;;;;;;0.38;0.38;;;;;;;16.35;37.96;98575.41;6243701;23;20020;-63
2021/08/31 11:31:28;;;;;;;0.50;0.20;;;;;;;16.22;38.18;98572.09;6135573;23;2527939;-64
2021/08/31 11:33:55;;;;;;;0.10;0.10;;;;;;;16.06;38.37;98579.59;6244857;23;20016;-64
2021/08/31 11:36:28;;;;;;;0.20;0.20;;;;;;;15.93;38.78;98575.44;6245851;23;20077;-63
2021/08/31 11:38:57;;;;;;;0.73;0.73;;;;;;;15.80;38.57;98575.97;6246366;23;20460;-62
2021/08/31 11:41:37;;;;;;;0.65;0.65;;;;;;;15.70;38.86;98576.75;6245830;23;20036;-62
2021/08/31 11:44:15;;;;;;;0.38;0.38;;;;;;;15.65;39.00;98578.66;6245689;23;20012;-62
2021/08/31 11:46:47;;;;;;;0.15;0.15;;;;;;;15.64;38.97;98577.84;6245648;23;20445;-62
2021/08/31 11:49:29;;;;;;;0.20;0.20;;;;;;;15.71;38.64;98588.66;6245187;23;20012;-62
2021/08/31 11:52:08;;;;;;;0.20;0.20;;;;;;;15.68;39.04;98587.28;6245800;23;20057;-64
2021/08/31 11:54:38;;;;;;;0.60;0.60;;;;;;;15.62;39.21;98574.53;6245326;23;20022;-63
2021/08/31 11:57:06;;;;;;;2.05;0.30;;;;;;;15.66;39.06;98574.81;6244746;23;20012;-63
2021/08/31 11:59:43;;;;;;;0.30;0.30;;;;;;;15.70;38.98;98579.50;6244807;23;20460;-63
2021/08/31 12:02:16;;;;;;;0.20;0.20;;;;;;;15.76;38.95;98575.63;6245604;23;20024;-63
2021/08/31 12:04:44;;;;;;;0.52;0.40;;;;;;;15.75;38.94;98567.63;6245487;23;20012;-65
2021/08/31 12:07:12;;;;;;;1.45;1.30;;;;;;;15.76;38.69;98570.09;6218676;23;20015;-64
2021/08/31 12:09:42;;;;;;;0.20;0.20;;;;;;;15.80;38.63;98570.44;6245378;23;20061;-64
2021/08/31 12:12:09;;;;;;;0.10;0.10;;;;;;;15.80;38.78;98564.91;6245114;23;20035;-63
2021/08/31 12:14:35;;;;;;;1.00;0.50;;;;;;;15.70;38.89;98564.84;6245741;23;20107;-64
2021/08/31 12:17:01;;;;;;;0.20;0.20;;;;;;;15.64;38.82;98572.31;6216821;23;20016;-62
2021/08/31 12:19:27;;;;;;;0.30;0.30;;;;;;;15.63;39.06;98559.56;6243971;23;20008;-64
2021/08/31 12:22:12;;;;;;;0.20;0.20;;;;;;;15.60;39.19;98560.13;6243443;23;20473;-66
2021/08/31 12:24:43;;;;;;;0.20;0.20;;;;;;;15.58;39.23;98562.34;6243882;23;20142;-63
2021/08/31 12:27:14;;;;;;;0.40;0.38;;;;;;;15.55;39.35;98560.13;6243720;23;20016;-62
2021/08/31 12:29:55;;;;;;;0.88;0.47;;;;;;;15.54;39.18;98564.81;6243107;23;20110;-63
2021/08/31 12:32:29;;;;;;;0.43;0.43;;;;;;;15.53;39.27;98554.88;6244159;23;20107;-64
2021/08/31 12:34:56;;;;;;;;;;;;;;;15.52;39.02;98553.19;6244256;23;20094;-63
2021/08/31 12:37:33;;;;;;;0.20;0.20;;;;;;;15.54;38.99;98550.97;6243118;23;20006;-65
2021/08/31 12:40:29;;;;;;;0.30;0.30;;;;;;;15.51;39.41;98553.47;6243303;23;20092;-64
2021/08/31 12:43:04;;;;;;;0.20;0.20;;;;;;;15.46;39.42;98551.53;6230347;23;20396;-62
2021/08/31 12:45:30;;;;;;;1.42;0.75;;;;;;;15.45;39.58;98552.63;6243294;23;20043;-65
2021/08/31 12:47:58;;;;;;;0.20;0.20;;;;;;;15.40;39.36;98544.31;6243511;23;20495;-64
2021/08/31 12:50:25;;;;;;;0.30;0.30;;;;;;;15.39;39.43;98551.78;6243435;23;20457;-64
2021/08/31 12:53:04;;;;;;;0.80;0.80;;;;;;;15.35;39.47;98541.53;6243361;23;20011;-65
2021/08/31 12:55:32;;;;;;;0.17;0.17;;;;;;;15.30;39.55;98547.06;6243453;23;20015;-64
2021/08/31 12:58:24;;;;;;;0.20;0.20;;;;;;;15.23;39.55;98539.00;6243110;23;20061;-64
2021/08/31 13:01:22;;;;;;;0.10;0.10;;;;;;;15.02;39.99;98536.19;6236299;23;20080;-63
2021/08/31 13:03:56;;;;;;;0.65;0.47;;;;;;;14.84;40.35;98542.16;6208969;23;20020;-63
2021/08/31 13:06:35;;;;;;;0.20;0.20;;;;;;;14.70;40.76;98539.09;6216018;23;20391;-63
2021/08/31 13:09:05;;;;;;;0.50;0.50;;;;;;;14.58;40.70;98533.75;6243337;23;20039;-62
2021/08/31 13:11:31;;;;;;;0.40;0.40;;;;;;;14.46;40.89;98533.13;6244156;23;20329;-64
2021/08/31 13:13:57;;;;;;;0.28;0.28;;;;;;;14.35;41.10;98529.44;6243567;23;20095;-63